createdAt,value
2023-01-29T00:01:42.382Z,99805.16
2023-01-29T00:04:10.348Z,99807.38
2023-01-29T00:06:38.304Z,99805.59
2023-01-29T00:09:06.281Z,99803.28
2023-01-29T00:11:36.159Z,99804.78
2023-01-29T00:14:04.059Z,99811.78
2023-01-29T00:16:31.987Z,99805.44
2023-01-29T00:18:59.932Z,99782.06
2023-01-29T00:21:27.799Z,99807.03
2023-01-29T00:23:56.359Z,99813.38
2023-01-29T00:26:24.389Z,99803.84
2023-01-29T00:28:53.912Z,99802.88
2023-01-29T00:31:23.652Z,99816.16
2023-01-29T00:33:52.216Z,99816.81
2023-01-29T00:36:21.824Z,99809.03
2023-01-29T00:38:58.823Z,99804.75
2023-01-29T00:41:46.364Z,99805.50
2023-01-29T00:44:33.348Z,99809.28
2023-01-29T00:47:01.417Z,99810.38
2023-01-29T00:49:30.310Z,99817.94
2023-01-29T00:52:15.851Z,99813.63
2023-01-29T00:54:43.764Z,99811.00
2023-01-29T00:57:11.684Z,99806.81
2023-01-29T00:59:40.988Z,99798.13
2023-01-29T01:02:27.121Z,99795.50
2023-01-29T01:04:55.038Z,99798.03
2023-01-29T01:07:22.964Z,99797.97
2023-01-29T01:10:08.579Z,99800.56
2023-01-29T01:12:36.525Z,99797.03
2023-01-29T01:15:06.589Z,99798.88
2023-01-29T01:17:35.000Z,99793.56
2023-01-29T01:20:02.983Z,99779.84
2023-01-29T01:22:31.245Z,99800.84
2023-01-29T01:24:59.146Z,99796.66
2023-01-29T01:27:27.019Z,99787.03
2023-01-29T01:29:55.010Z,99798.13
2023-01-29T01:32:24.270Z,99791.75
2023-01-29T01:34:53.671Z,99799.44
2023-01-29T01:37:22.187Z,99804.84
2023-01-29T01:39:50.649Z,99806.34
2023-01-29T01:42:18.597Z,99808.84
2023-01-29T01:44:55.934Z,99799.31
2023-01-29T01:47:31.199Z,99805.22
2023-01-29T01:50:04.117Z,99805.59
2023-01-29T01:52:33.840Z,99802.97
2023-01-29T01:55:02.233Z,99803.53
2023-01-29T01:57:32.108Z,99802.97
2023-01-29T02:00:10.875Z,99801.59
2023-01-29T02:03:00.445Z,99803.06
2023-01-29T02:05:46.265Z,99799.34
2023-01-29T02:08:33.493Z,99805.75
2023-01-29T02:11:02.187Z,99794.34
2023-01-29T02:13:30.154Z,99793.53
2023-01-29T02:15:58.013Z,99794.28
2023-01-29T02:18:27.525Z,99803.41
2023-01-29T02:21:14.548Z,99805.56
2023-01-29T02:24:11.226Z,99808.47
2023-01-29T02:26:48.708Z,99805.28
2023-01-29T02:29:25.348Z,99809.50
2023-01-29T02:32:01.427Z,99818.91
2023-01-29T02:34:59.457Z,99819.69
2023-01-29T02:37:36.079Z,99815.94
2023-01-29T02:40:13.642Z,99816.97
2023-01-29T02:42:50.104Z,99822.41
2023-01-29T02:45:23.700Z,99810.34
2023-01-29T02:47:59.737Z,99813.22
2023-01-29T02:50:33.889Z,99803.56
2023-01-29T02:53:07.673Z,99772.75
2023-01-29T02:55:41.304Z,99811.66
2023-01-29T02:58:14.489Z,99801.38
2023-01-29T03:00:46.821Z,99807.38
2023-01-29T03:03:19.959Z,99810.81
2023-01-29T03:05:57.148Z,99803.25
2023-01-29T03:08:43.329Z,99821.91
2023-01-29T03:11:14.229Z,99818.31
2023-01-29T03:13:48.924Z,99826.28
2023-01-29T03:16:24.748Z,99819.63
2023-01-29T03:18:57.684Z,99823.44
2023-01-29T03:21:49.933Z,99814.03
2023-01-29T03:24:49.249Z,99833.97
2023-01-29T03:27:38.361Z,99843.34
2023-01-29T03:30:29.609Z,99837.16
2023-01-29T03:33:02.099Z,99825.28
2023-01-29T03:35:36.624Z,99843.16
2023-01-29T03:38:07.450Z,99840.69
2023-01-29T03:40:41.390Z,99850.25
2023-01-29T03:43:16.943Z,99842.72
2023-01-29T03:45:58.971Z,99842.50
2023-01-29T03:48:36.880Z,99838.06
2023-01-29T03:51:17.274Z,99844.19
2023-01-29T03:53:49.675Z,99829.34
2023-01-29T03:56:30.365Z,99824.06
2023-01-29T03:59:02.992Z,99837.19
2023-01-29T04:01:41.088Z,99843.34
2023-01-29T04:04:16.214Z,99832.88
2023-01-29T04:06:47.647Z,99840.09
2023-01-29T04:09:22.338Z,99832.28
2023-01-29T04:11:56.398Z,99846.34
2023-01-29T04:14:25.180Z,99841.16
2023-01-29T04:16:57.112Z,99841.97
2023-01-29T04:19:26.605Z,99848.66
2023-01-29T04:22:03.565Z,99829.63
2023-01-29T04:24:31.858Z,99832.84
2023-01-29T04:27:13.668Z,99826.06
2023-01-29T04:29:52.598Z,99833.13
2023-01-29T04:32:28.014Z,99828.88
2023-01-29T04:35:02.592Z,99829.72
2023-01-29T04:37:48.229Z,99828.88
2023-01-29T04:40:22.350Z,99827.13
2023-01-29T04:42:56.348Z,99822.78
2023-01-29T04:45:35.075Z,99777.88
2023-01-29T04:48:15.333Z,99828.66
2023-01-29T04:50:54.250Z,99824.44
2023-01-29T04:53:27.870Z,99827.09
2023-01-29T04:56:00.555Z,99824.63
2023-01-29T04:58:34.422Z,99820.09
2023-01-29T05:01:03.325Z,99829.56
2023-01-29T05:03:34.316Z,99824.41
2023-01-29T05:06:04.944Z,99820.94
2023-01-29T05:08:33.964Z,99814.25
2023-01-29T05:11:01.890Z,99809.09
2023-01-29T05:13:32.905Z,99814.25
2023-01-29T05:16:06.248Z,99822.13
2023-01-29T05:18:35.140Z,99804.19
2023-01-29T05:21:07.506Z,99823.31
2023-01-29T05:23:35.879Z,99830.13
2023-01-29T05:26:04.867Z,99834.34
2023-01-29T05:28:31.922Z,99837.00
2023-01-29T05:30:59.986Z,99840.47
2023-01-29T05:33:29.783Z,99843.88
2023-01-29T05:35:59.494Z,99835.06
2023-01-29T05:38:28.845Z,99830.59
2023-01-29T05:40:59.727Z,99842.78
2023-01-29T05:43:27.704Z,99837.59
2023-01-29T05:45:56.672Z,99836.81
2023-01-29T05:48:25.103Z,99836.91
2023-01-29T05:50:53.221Z,99840.38
2023-01-29T05:53:21.218Z,99842.06
2023-01-29T05:55:50.469Z,99853.25
2023-01-29T05:58:19.775Z,99856.81
2023-01-29T06:00:47.800Z,99870.59
2023-01-29T06:03:15.847Z,99861.00
2023-01-29T06:05:43.831Z,99875.72
2023-01-29T06:08:12.148Z,99869.53
2023-01-29T06:10:40.284Z,99869.53
2023-01-29T06:13:09.591Z,99867.81
2023-01-29T06:15:40.136Z,99851.44
2023-01-29T06:18:08.433Z,99860.16
2023-01-29T06:20:36.374Z,99834.16
2023-01-29T06:23:04.398Z,99838.56
2023-01-29T06:25:32.427Z,99832.50
2023-01-29T06:28:00.323Z,99823.81
2023-01-29T06:30:29.615Z,99821.38
2023-01-29T06:32:58.864Z,99813.47
2023-01-29T06:35:26.979Z,99821.16
2023-01-29T06:37:54.937Z,99829.91
2023-01-29T06:40:22.868Z,99834.41
2023-01-29T06:42:50.759Z,99845.63
2023-01-29T06:45:18.719Z,99841.38
2023-01-29T06:47:48.009Z,99843.97
2023-01-29T06:50:16.098Z,99851.97
2023-01-29T06:52:44.209Z,99844.28
2023-01-29T06:55:12.223Z,99850.38
2023-01-29T06:57:40.203Z,99823.56
2023-01-29T07:00:09.995Z,99851.28
2023-01-29T07:02:37.884Z,99854.81
2023-01-29T07:05:07.762Z,99867.88
2023-01-29T07:07:36.824Z,99886.16
2023-01-29T07:10:05.170Z,99877.56
2023-01-29T07:12:33.081Z,99870.44
2023-01-29T07:15:00.985Z,99888.47
2023-01-29T07:17:28.848Z,99895.47
2023-01-29T07:19:56.802Z,99896.25
2023-01-29T07:22:26.146Z,99897.13
2023-01-29T07:24:54.092Z,99902.09
2023-01-29T07:27:22.059Z,99909.94
2023-01-29T07:29:50.044Z,99904.72
2023-01-29T07:32:18.009Z,99904.66
2023-01-29T07:34:45.916Z,99913.31
2023-01-29T07:37:13.792Z,99914.91
2023-01-29T07:39:43.494Z,99915.81
2023-01-29T07:42:11.396Z,99923.56
2023-01-29T07:44:39.335Z,99923.41
2023-01-29T07:47:07.232Z,99917.22
2023-01-29T07:49:35.122Z,99910.31
2023-01-29T07:52:03.080Z,99910.31
2023-01-29T07:54:32.028Z,99906.78
2023-01-29T07:57:01.538Z,99902.47
2023-01-29T07:59:29.457Z,99901.53
2023-01-29T08:01:57.384Z,99909.19
2023-01-29T08:04:25.403Z,99910.81
2023-01-29T08:06:53.316Z,99913.34
2023-01-29T08:09:21.221Z,99921.88
2023-01-29T08:11:49.121Z,99920.19
2023-01-29T08:14:18.539Z,99925.34
2023-01-29T08:16:46.454Z,99929.72
2023-01-29T08:19:14.443Z,99921.09
2023-01-29T08:21:42.491Z,99942.63
2023-01-29T08:24:10.618Z,99948.78
2023-01-29T08:26:38.493Z,99939.19
2023-01-29T08:29:06.408Z,99951.31
2023-01-29T08:31:36.220Z,99942.63
2023-01-29T08:34:04.207Z,99951.25
2023-01-29T08:36:32.104Z,99930.25
2023-01-29T08:39:00.046Z,99945.13
2023-01-29T08:41:27.923Z,99951.94
2023-01-29T08:43:57.474Z,99960.53
2023-01-29T08:46:25.396Z,99965.81
2023-01-29T08:48:55.390Z,99953.81
2023-01-29T08:51:23.575Z,99975.50
2023-01-29T08:53:51.717Z,99965.84
2023-01-29T08:56:19.632Z,99968.38
2023-01-29T08:58:47.989Z,99975.25
2023-01-29T09:01:16.171Z,99970.22
2023-01-29T09:03:44.757Z,99970.97
2023-01-29T09:06:16.051Z,99961.41
2023-01-29T09:08:44.124Z,99962.25
2023-01-29T09:11:12.015Z,99969.22
2023-01-29T09:13:39.943Z,99975.06
2023-01-29T09:16:08.726Z,99980.41
2023-01-29T09:18:36.812Z,99969.22
2023-01-29T09:21:05.086Z,99990.53
2023-01-29T09:23:34.466Z,99991.56
2023-01-29T09:26:02.500Z,99981.91
2023-01-29T09:28:30.463Z,99986.28
2023-01-29T09:31:01.723Z,99999.25
2023-01-29T09:33:31.014Z,99991.03
2023-01-29T09:35:58.966Z,100004.09
2023-01-29T09:38:26.889Z,99999.63
2023-01-29T09:41:07.396Z,99986.34
2023-01-29T09:43:44.700Z,99984.94
2023-01-29T09:46:21.109Z,99974.41
2023-01-29T09:48:54.119Z,99968.41
2023-01-29T09:51:29.620Z,99951.03
2023-01-29T09:54:06.521Z,99961.94
2023-01-29T09:56:36.508Z,99965.56
2023-01-29T09:59:04.509Z,99962.78
2023-01-29T10:01:50.730Z,99965.19
2023-01-29T10:05:03.552Z,99965.31
2023-01-29T10:07:56.520Z,99962.72
2023-01-29T10:10:38.423Z,99954.69
2023-01-29T10:13:21.255Z,99974.44
2023-01-29T10:16:03.426Z,99951.91
2023-01-29T10:19:06.588Z,99970.09
2023-01-29T10:21:54.125Z,99968.03
2023-01-29T10:24:33.235Z,99947.97
2023-01-29T10:27:02.605Z,99947.97
2023-01-29T10:29:33.219Z,99945.19
2023-01-29T10:32:06.072Z,99935.56
2023-01-29T10:34:40.272Z,99931.16
2023-01-29T10:37:18.549Z,99910.25
2023-01-29T10:39:47.031Z,99901.38
2023-01-29T10:42:23.553Z,99890.75
2023-01-29T10:45:07.657Z,99905.31
2023-01-29T10:48:15.871Z,99894.03
2023-01-29T10:50:50.104Z,99893.63
2023-01-29T10:53:32.994Z,99887.44
2023-01-29T10:56:22.421Z,99879.25
2023-01-29T10:58:54.934Z,99869.50
2023-01-29T11:01:26.834Z,99874.63
2023-01-29T11:04:01.401Z,99866.25
2023-01-29T11:06:32.619Z,99870.09
2023-01-29T11:09:09.281Z,99869.97
2023-01-29T11:11:43.100Z,99870.44
2023-01-29T11:14:14.462Z,99864.72
2023-01-29T11:16:45.779Z,99882.75
2023-01-29T11:19:14.149Z,99863.16
2023-01-29T11:21:57.236Z,99876.03
2023-01-29T11:24:25.768Z,99861.84
2023-01-29T11:26:57.339Z,99876.03
2023-01-29T11:30:00.578Z,99829.44
2023-01-29T11:32:35.009Z,99853.78
2023-01-29T11:35:05.344Z,99879.25
2023-01-29T11:37:36.252Z,99872.75
2023-01-29T11:40:36.308Z,99880.97
2023-01-29T11:43:24.839Z,99875.06
2023-01-29T11:45:56.118Z,99880.66
2023-01-29T11:48:28.443Z,99867.16
2023-01-29T11:51:00.717Z,99859.41
2023-01-29T11:53:36.712Z,99857.97
2023-01-29T11:56:16.944Z,99865.41
2023-01-29T11:58:46.188Z,99874.34
2023-01-29T12:01:16.557Z,99868.19
2023-01-29T12:03:49.303Z,99857.63
2023-01-29T12:06:20.884Z,99856.50
2023-01-29T12:08:56.223Z,99846.41
2023-01-29T12:11:30.360Z,99851.03
2023-01-29T12:14:00.092Z,99840.34
2023-01-29T12:16:33.269Z,99849.78
2023-01-29T12:19:11.640Z,99853.34
2023-01-29T12:21:48.109Z,99852.97
2023-01-29T12:24:32.454Z,99848.47
2023-01-29T12:27:13.147Z,99838.78
2023-01-29T12:29:46.993Z,99840.81
2023-01-29T12:32:20.696Z,99841.38
2023-01-29T12:34:53.325Z,99832.09
2023-01-29T12:37:29.025Z,99837.47
2023-01-29T12:39:57.332Z,99806.94
2023-01-29T12:42:27.581Z,99826.03
2023-01-29T12:45:00.722Z,99821.31
2023-01-29T12:47:33.552Z,99831.16
2023-01-29T12:50:08.204Z,99830.94
2023-01-29T12:52:40.778Z,99819.91
2023-01-29T12:55:13.842Z,99823.69
2023-01-29T12:57:47.740Z,99817.56
2023-01-29T13:00:18.145Z,99809.00
2023-01-29T13:02:51.918Z,99817.41
2023-01-29T13:05:24.534Z,99812.75
2023-01-29T13:07:58.819Z,99796.50
2023-01-29T13:10:30.800Z,99807.00
2023-01-29T13:13:04.048Z,99791.97
2023-01-29T13:15:36.397Z,99788.66
2023-01-29T13:18:24.954Z,99788.16
2023-01-29T13:20:53.979Z,99753.34
2023-01-29T13:23:23.847Z,99765.50
2023-01-29T13:25:53.227Z,99770.06
2023-01-29T13:28:24.853Z,99778.94
2023-01-29T13:31:18.947Z,99762.28
2023-01-29T13:33:55.213Z,99764.69
2023-01-29T13:36:29.099Z,99765.47
2023-01-29T13:39:01.019Z,99755.19
2023-01-29T13:41:41.848Z,99753.13
2023-01-29T13:44:22.349Z,99755.94
2023-01-29T13:46:54.836Z,99747.28
2023-01-29T13:49:29.769Z,99722.75
2023-01-29T13:51:58.492Z,99746.16
2023-01-29T13:54:28.230Z,99732.88
2023-01-29T13:57:01.926Z,99733.22
2023-01-29T13:59:55.323Z,99725.63
2023-01-29T14:02:26.159Z,99726.50
2023-01-29T14:05:33.838Z,99721.00
2023-01-29T14:08:03.291Z,99719.59
2023-01-29T14:10:32.704Z,99722.03
2023-01-29T14:13:36.192Z,99718.84
2023-01-29T14:16:34.986Z,99723.25
2023-01-29T14:19:06.425Z,99716.00
2023-01-29T14:21:37.754Z,99733.28
2023-01-29T14:24:19.836Z,99728.63
2023-01-29T14:26:50.559Z,99733.28
2023-01-29T14:32:20.436Z,99733.19
2023-01-29T14:32:42.540Z,99724.94
2023-01-29T14:34:51.866Z,99733.59
2023-01-29T14:37:24.122Z,99731.31
2023-01-29T14:39:54.262Z,99727.25
2023-01-29T14:42:26.293Z,99727.56
2023-01-29T14:45:09.200Z,99730.59
2023-01-29T14:47:59.997Z,99742.94
2023-01-29T14:51:01.616Z,99734.91
2023-01-29T14:53:47.343Z,99725.25
2023-01-29T14:56:18.864Z,99742.53
2023-01-29T14:58:54.327Z,99726.78
2023-01-29T15:01:27.559Z,99741.88
2023-01-29T15:04:06.851Z,99741.84
2023-01-29T15:06:42.590Z,99750.31
2023-01-29T15:09:17.859Z,99746.91
2023-01-29T15:11:52.908Z,99745.34
2023-01-29T15:14:33.544Z,99747.19
2023-01-29T15:17:19.458Z,99750.81
2023-01-29T15:19:53.000Z,99754.16
2023-01-29T15:22:26.287Z,99756.88
2023-01-29T15:25:07.545Z,99747.41
2023-01-29T15:27:37.217Z,99757.88
2023-01-29T15:30:08.932Z,99768.53
2023-01-29T15:32:39.662Z,99765.88
2023-01-29T15:35:12.617Z,99752.34
2023-01-29T15:37:42.262Z,99773.34
2023-01-29T15:40:18.427Z,99768.78
2023-01-29T15:42:48.788Z,99783.41
2023-01-29T15:45:30.664Z,99779.97
2023-01-29T15:48:06.867Z,99790.63
2023-01-29T15:50:40.793Z,99772.34
2023-01-29T15:53:14.545Z,99764.50
2023-01-29T15:55:42.843Z,99769.22
2023-01-29T15:58:16.835Z,99781.34
2023-01-29T16:00:51.511Z,99775.25
2023-01-29T16:03:23.836Z,99736.63
2023-01-29T16:05:53.769Z,99760.78
2023-01-29T16:08:23.390Z,99760.13
2023-01-29T16:10:55.199Z,99768.09
2023-01-29T16:13:25.771Z,99780.47
2023-01-29T16:15:59.562Z,99763.34
2023-01-29T16:18:31.517Z,99773.72
2023-01-29T16:21:05.449Z,99774.94
2023-01-29T16:23:37.940Z,99790.59
2023-01-29T16:26:09.500Z,99769.06
2023-01-29T16:28:42.079Z,99793.22
2023-01-29T16:31:11.989Z,99771.06
2023-01-29T16:33:43.358Z,99772.03
2023-01-29T16:36:17.886Z,99782.50
2023-01-29T16:38:50.154Z,99787.50
2023-01-29T16:41:31.366Z,99778.88
2023-01-29T16:44:03.404Z,99777.19
2023-01-29T16:46:37.427Z,99782.75
2023-01-29T16:49:45.184Z,99775.09
2023-01-29T16:52:24.573Z,99757.13
2023-01-29T16:54:52.942Z,99780.56
2023-01-29T16:57:25.930Z,99782.47
2023-01-29T16:59:57.962Z,99775.84
2023-01-29T17:02:33.223Z,99783.06
2023-01-29T17:05:05.290Z,99778.16
2023-01-29T17:07:39.045Z,99762.53
2023-01-29T17:10:09.956Z,99778.06
2023-01-29T17:12:40.609Z,99787.13
2023-01-29T17:15:35.689Z,99784.53
2023-01-29T17:18:04.618Z,99787.41
2023-01-29T17:20:35.695Z,99769.25
2023-01-29T17:23:05.037Z,99779.63
2023-01-29T17:25:33.706Z,99769.81
2023-01-29T17:28:02.650Z,99786.31
2023-01-29T17:30:34.708Z,99787.09
2023-01-29T17:33:04.543Z,99788.91
2023-01-29T17:35:32.497Z,99788.31
2023-01-29T17:38:01.312Z,99789.44
2023-01-29T17:40:38.644Z,99780.94
2023-01-29T17:43:08.989Z,99786.38
2023-01-29T17:45:36.961Z,99783.81
2023-01-29T17:48:08.049Z,99785.34
2023-01-29T17:50:39.341Z,99778.91
2023-01-29T17:53:08.102Z,99770.41
2023-01-29T17:55:37.449Z,99778.72
2023-01-29T17:58:05.386Z,99773.63
2023-01-29T18:00:35.724Z,99771.78
2023-01-29T18:03:03.752Z,99755.63
2023-01-29T18:05:31.723Z,99782.88
2023-01-29T18:07:59.719Z,99764.69
2023-01-29T18:10:27.699Z,99776.50
2023-01-29T18:12:57.011Z,99786.34
2023-01-29T18:15:24.945Z,99774.28
2023-01-29T18:17:53.451Z,99772.81
2023-01-29T18:20:25.675Z,99788.31
2023-01-29T18:22:54.105Z,99794.31
2023-01-29T18:25:24.163Z,99788.41
2023-01-29T18:27:52.763Z,99802.31
2023-01-29T18:30:22.262Z,99794.47
2023-01-29T18:32:50.431Z,99796.31
2023-01-29T18:35:18.903Z,99798.97
2023-01-29T18:37:47.288Z,99786.09
2023-01-29T18:40:17.351Z,99800.03
2023-01-29T18:42:45.720Z,99794.00
2023-01-29T18:45:14.185Z,99801.94
2023-01-29T18:47:43.672Z,99794.84
2023-01-29T18:50:12.648Z,99794.97
2023-01-29T18:52:40.958Z,99794.97
2023-01-29T18:55:10.012Z,99796.66
2023-01-29T18:58:28.591Z,99806.38
2023-01-29T19:00:27.155Z,99800.34
2023-01-29T19:02:56.455Z,99792.63
2023-01-29T19:05:25.692Z,99809.31
2023-01-29T19:07:53.682Z,99804.69
2023-01-29T19:10:21.625Z,99804.69
2023-01-29T19:12:49.516Z,99791.78
2023-01-29T19:15:20.695Z,99783.06
2023-01-29T19:17:48.796Z,99780.31
2023-01-29T19:20:18.762Z,99781.94
2023-01-29T19:22:46.705Z,99780.28
2023-01-29T19:25:16.151Z,99782.91
2023-01-29T19:27:44.549Z,99783.84
2023-01-29T19:30:13.951Z,99785.66
2023-01-29T19:32:42.513Z,99771.81
2023-01-29T19:35:10.538Z,99770.06
2023-01-29T19:37:39.868Z,99781.28
2023-01-29T19:40:09.348Z,99783.81
2023-01-29T19:42:37.634Z,99775.97
2023-01-29T19:45:07.174Z,99774.22
2023-01-29T19:47:39.633Z,99779.41
2023-01-29T19:50:08.706Z,99772.69
2023-01-29T19:52:50.289Z,99779.78
2023-01-29T19:55:21.449Z,99793.69
2023-01-29T19:57:49.629Z,99794.63
2023-01-29T20:00:19.692Z,99797.25
2023-01-29T20:02:47.603Z,99797.38
2023-01-29T20:05:18.434Z,99796.47
2023-01-29T20:07:46.652Z,99797.38
2023-01-29T20:10:17.496Z,99796.47
2023-01-29T20:12:47.576Z,99802.56
2023-01-29T20:15:16.073Z,99804.34
2023-01-29T20:17:45.735Z,99800.78
2023-01-29T20:20:14.858Z,99801.44
2023-01-29T20:22:43.014Z,99797.84
2023-01-29T20:25:13.680Z,99796.94
2023-01-29T20:27:42.273Z,99790.03
2023-01-29T20:30:15.740Z,99796.06
2023-01-29T20:32:43.811Z,99786.50
2023-01-29T20:35:12.001Z,99771.03
2023-01-29T20:37:39.891Z,99788.25
2023-01-29T20:40:08.813Z,99798.56
2023-01-29T20:42:36.775Z,99785.53
2023-01-29T20:45:05.831Z,99782.84
2023-01-29T20:47:35.224Z,99785.44
2023-01-29T20:50:08.552Z,99788.06
2023-01-29T20:52:36.582Z,99779.31
2023-01-29T20:55:06.065Z,99794.00
2023-01-29T20:57:34.250Z,99771.50
2023-01-29T21:00:02.212Z,99782.69
2023-01-29T21:02:30.183Z,99781.00
2023-01-29T21:04:59.588Z,99778.38
2023-01-29T21:07:27.530Z,99777.56
2023-01-29T21:09:55.527Z,99776.69
2023-01-29T21:12:23.416Z,99773.25
2023-01-29T21:14:51.417Z,99777.63
2023-01-29T21:17:19.947Z,99772.47
2023-01-29T21:19:47.901Z,99775.97
2023-01-29T21:22:17.347Z,99771.69
2023-01-29T21:24:45.333Z,99771.69
2023-01-29T21:27:13.238Z,99777.75
2023-01-29T21:29:41.213Z,99770.97
2023-01-29T21:32:11.690Z,99770.00
2023-01-29T21:34:40.039Z,99753.63
2023-01-29T21:37:09.394Z,99763.09
2023-01-29T21:39:38.715Z,99763.22
2023-01-29T21:42:35.584Z,99769.34
2023-01-29T21:45:03.589Z,99772.47
2023-01-29T21:47:31.510Z,99767.97
2023-01-29T21:50:00.248Z,99771.28
2023-01-29T21:52:28.185Z,99772.81
2023-01-29T21:54:57.498Z,99766.59
2023-01-29T21:57:26.718Z,99751.78
2023-01-29T21:59:54.924Z,99763.00
2023-01-29T22:02:23.509Z,99759.31
2023-01-29T22:04:52.426Z,99756.84
2023-01-29T22:07:20.380Z,99751.72
2023-01-29T22:09:48.438Z,99747.41
2023-01-29T22:12:17.950Z,99729.97
2023-01-29T22:14:47.404Z,99739.34
2023-01-29T22:17:16.741Z,99729.66
2023-01-29T22:19:44.919Z,99724.31
2023-01-29T22:22:14.702Z,99717.44
2023-01-29T22:24:44.794Z,99722.50
2023-01-29T22:27:12.909Z,99721.63
2023-01-29T22:29:42.518Z,99707.13
2023-01-29T22:32:11.703Z,99710.25
2023-01-29T22:34:39.850Z,99713.69
2023-01-29T22:37:07.766Z,99697.00
2023-01-29T22:39:35.789Z,99699.53
2023-01-29T22:42:03.713Z,99696.94
2023-01-29T22:44:31.596Z,99690.09
2023-01-29T22:47:01.423Z,99686.53
2023-01-29T22:49:30.444Z,99649.34
2023-01-29T22:52:10.995Z,99694.03
2023-01-29T22:54:40.054Z,99697.59
2023-01-29T22:57:10.155Z,99687.88
2023-01-29T22:59:38.527Z,99681.91
2023-01-29T23:02:08.719Z,99674.16
2023-01-29T23:04:36.769Z,99672.47
2023-01-29T23:07:05.275Z,99683.41
2023-01-29T23:09:33.240Z,99676.38
2023-01-29T23:12:01.424Z,99699.94
2023-01-29T23:14:29.417Z,99698.16
2023-01-29T23:16:57.402Z,99691.16
2023-01-29T23:19:27.218Z,99684.44
2023-01-29T23:21:55.126Z,99690.22
2023-01-29T23:24:23.344Z,99697.22
2023-01-29T23:27:08.525Z,99700.84
2023-01-29T23:29:36.460Z,99706.19
2023-01-29T23:32:04.674Z,99698.44
2023-01-29T23:34:34.002Z,99708.81
2023-01-29T23:37:01.962Z,99703.56
2023-01-29T23:39:29.863Z,99702.72
2023-01-29T23:41:57.819Z,99700.00
2023-01-29T23:44:25.739Z,99699.25
2023-01-29T23:46:53.753Z,99686.88
2023-01-29T23:49:21.961Z,99687.03
2023-01-29T23:51:52.018Z,99680.97
2023-01-29T23:54:20.113Z,99661.16
2023-01-29T23:56:48.019Z,99661.94
2023-01-29T23:59:17.112Z,99655.09
